Crew | Aerofun Virtual



 METAR AND TAF INFORMATION
METAR FOR UMMS
ADDS - METARS form results

(0317 UTC 23 September 2019)
Data provider http://aviationweather.gov/metar/data/
 
METAR text: UMMS 230314Z 02002MPS 340V040 0750 0600E R31R/1400 R31L/1800 FG VV001 01/01 Q1020 R31R/290057 R31L/290050 NOSIG RMK QBB050
Conditions at: UMMS (MINSK , BY) observed 0314 UTC 23 September 2019
Temperature: 1.0°C (34°F)
Dewpoint: 1.0°C (34°F) [RH = 100%]
Pressure (altimeter): 30.12 inches Hg (1020.0 mb)
Winds: from the NNE (20 degrees) at 5 MPH (4 knots; 2.1 m/s)
Visibility: 0.47 miles (0.76 km)
Ceiling: indefinite ceiling with vertical visibility of 100 feet AGL
Clouds: obscured sky
Weather: FG  (fog)

METAR text: UMMS 230311Z 02002MPS 340V040 0900 0750S R31R/1700 R31L/1800 FG BKN001 01/01 Q1020 R31R/290057 R31L/290050 NOSIG RMK QBB050
Conditions at: UMMS (MINSK , BY) observed 0311 UTC 23 September 2019
Temperature: 1.0°C (34°F)
Dewpoint: 1.0°C (34°F) [RH = 100%]
Pressure (altimeter): 30.12 inches Hg (1020.0 mb)
Winds: from the NNE (20 degrees) at 5 MPH (4 knots; 2.1 m/s)
Visibility: 0.56 miles (0.90 km)
Ceiling: 100 feet AGL
Clouds: broken clouds at 100 feet AGL
Weather: FG  (fog)

METAR text: UMMS 230300Z 36002MPS 310V030 1200 0800E R31R/1600 R31L/P2000 FG BKN001 02/02 Q1020 R31R/290057 R31L/290050 NOSIG RMK QBB050
Conditions at: UMMS (MINSK , BY) observed 0300 UTC 23 September 2019
Temperature: 2.0°C (36°F)
Dewpoint: 2.0°C (36°F) [RH = 100%]
Pressure (altimeter): 30.12 inches Hg (1020.0 mb)
Winds: from the N (360 degrees) at 5 MPH (4 knots; 2.1 m/s)
Visibility: 0.75 miles (1.21 km)
Ceiling: 100 feet AGL
Clouds: broken clouds at 100 feet AGL
Weather: FG  (fog)

METAR text: UMMS 230248Z 36002MPS 1300 0750E R31R/1400 R31L/P2000D FG BKN001 02/01 Q1020 R31R/290057 R31L/290050 NOSIG RMK QBB050
Conditions at: UMMS (MINSK , BY) observed 0248 UTC 23 September 2019
Temperature: 2.0°C (36°F)
Dewpoint: 1.0°C (34°F) [RH = 93%]
Pressure (altimeter): 30.12 inches Hg (1020.0 mb)
Winds: from the N (360 degrees) at 5 MPH (4 knots; 2.1 m/s)
Visibility: 0.81 miles (1.30 km)
Ceiling: 100 feet AGL
Clouds: broken clouds at 100 feet AGL
Weather: FG  (fog)

METAR text: UMMS 230241Z 02002MPS 340V050 2700 R31R/1600D R31L/P2000U BR OVC001 02/02 Q1020 R31R/290057 R31L/290050 TEMPO 0700 FG RMK QBB050
Conditions at: UMMS (MINSK , BY) observed 0241 UTC 23 September 2019
Temperature: 2.0°C (36°F)
Dewpoint: 2.0°C (36°F) [RH = 100%]
Pressure (altimeter): 30.12 inches Hg (1020.0 mb)
Winds: from the NNE (20 degrees) at 5 MPH (4 knots; 2.1 m/s)
Visibility: 1.68 miles (2.70 km)
Ceiling: 100 feet AGL
Clouds: overcast cloud deck at 100 feet AGL
Weather: BR  (mist)

METAR text: UMMS 230233Z 36003MPS 2800 1100NE BR BKN001 02/02 Q1020 R31R/290057 R31L/290050 TEMPO 0700 FG RMK QBB050
Conditions at: UMMS (MINSK , BY) observed 0233 UTC 23 September 2019
Temperature: 2.0°C (36°F)
Dewpoint: 2.0°C (36°F) [RH = 100%]
Pressure (altimeter): 30.12 inches Hg (1020.0 mb)
Winds: from the N (360 degrees) at 7 MPH (6 knots; 3.1 m/s)
Visibility: 1.74 miles (2.80 km)
Ceiling: 100 feet AGL
Clouds: broken clouds at 100 feet AGL
Weather: BR  (mist)

METAR text: UMMS 230230Z 01002MPS 340V040 6000 2800NE BR BKN001 02/02 Q1020 R31R/290057 R31L/290050 TEMPO 1200 RMK QBB050
Conditions at: UMMS (MINSK , BY) observed 0230 UTC 23 September 2019
Temperature: 2.0°C (36°F)
Dewpoint: 2.0°C (36°F) [RH = 100%]
Pressure (altimeter): 30.12 inches Hg (1020.0 mb)
Winds: from the N (10 degrees) at 5 MPH (4 knots; 2.1 m/s)
Visibility: 4 miles ( 6 km)
Ceiling: 100 feet AGL
Clouds: broken clouds at 100 feet AGL
Weather: BR  (mist)

METAR text: UMMS 230228Z 01002MPS 340V040 7000 3000NE BR BKN001 02/02 Q1020 R31R/290057 R31L/290050 TEMPO 1200 RMK QBB050
Conditions at: UMMS (MINSK , BY) observed 0228 UTC 23 September 2019
Temperature: 2.0°C (36°F)
Dewpoint: 2.0°C (36°F) [RH = 100%]
Pressure (altimeter): 30.12 inches Hg (1020.0 mb)
Winds: from the N (10 degrees) at 5 MPH (4 knots; 2.1 m/s)
Visibility: 4 miles ( 7 km)
Ceiling: 100 feet AGL
Clouds: broken clouds at 100 feet AGL
Weather: BR  (mist)

Forecast for: AMD
Text: TAF AMD UMMS 230155Z 2301/2324 02005MPS 4000 BR OVC002
Forecast period: 0100 to 0600 UTC 23 September 2019
Forecast type: FROM: standard forecast or significant change
Winds: from the NNE (20 degrees) at 12 MPH (10 knots; 5.1 m/s)
Visibility: 2.49 miles (4.01 km)
Ceiling: 200 feet AGL
Clouds: overcast cloud deck at 200 feet AGL
Weather: BR  (mist)
Text: TEMPO 2302/2306 VRB02MPS 0300 FG VV001
Forecast period: 0200 to 0600 UTC 23 September 2019
Forecast type: TEMPORARY: The following changes expected for less than half the time period
Winds: variable direction winds at 5 MPH (4 knots; 2.1 m/s)
Visibility: 0.19 miles (0.31 km)
Ceiling: indefinite ceiling with vertical visibility of 100 feet AGL
Clouds: obscured sky
Weather: FG  (fog)
Text: BECMG 2306/2307 9999 NSW SCT030
Forecast period: 0600 UTC 23 September 2019 to 0000 UTC 24 September 2019
Forecast type: BECOMING: Conditions expected to become as follows by 0700 UTC 23 September 2019
Winds: from the NNE (20 degrees) at 12 MPH (10 knots; 5.1 m/s)
Visibility: 6 or more miles 10+ km)
Ceiling: at least 12,000 feet AGL
Clouds: scattered clouds at 3000 feet AGL
Weather: NSW  (no significant weather)
Text: TEMPO 2318/2324 1200 BR SCT004
Forecast period: 1800 UTC 23 September 2019 to 0000 UTC 24 September 2019
Forecast type: TEMPORARY: The following changes expected for less than half the time period
Visibility: 0.75 miles (1.21 km)
Ceiling: at least 12,000 feet AGL
Clouds: scattered clouds at 400 feet AGL
Weather: BR  (mist)

 AIRPORT MAP

 RUNWAY INFORMATION
Runway 13 Runway length 11946 ft Runway width 197 ft
Runway elevation 640 ft Runway displaced threshold 0 ft Runway heading 139
Runway 31 Runway length 11946 ft Runway width 197 ft
Runway elevation 670 ft Runway displaced threshold 0 ft Runway heading 319

 AIRPORT FREQUENCIES
Type APP Name MINSK APP Frequency 125.9 MHZ
Type ATIS Name ATIS Frequency 128.85 MHZ
Type GND Name GND Frequency 121.7 MHZ
Type PMSV Name MINSK VOLM Frequency 126.675 MHZ
Type RDR Name MINSK RADA Frequency 125.25 MHZ
Type TWR Name TWR Frequency 118.3 MHZ

 AIRPORT NEAR NAVIGATION AIDS
Type NDB Name Minsk-2 Frequency 635 KHZ
Type VOR-DME Name Minsk-2 Frequency 113600 KHZ
Type NDB Name Minsk-2 Frequency 635 KHZ